Time;durP1;ratioP1;P1;durP2;ratioP2;P2;SDS_P1;SDS_P2;PMS_P1;PMS_P2;Temp;Humidity;BMP_temperature;BMP_pressure;BME280_temperature;BME280_humidity;BME280_pressure;Samples;Min_cycle;Max_cycle;Signal;HPM_P1;HPM_P2
2023/12/12 00:01:03;;;;;;;15.63;5.03;;;;;;;7.18;100.00;100770.28;5045887;28;20107;-58
2023/12/12 00:03:28;;;;;;;18.20;5.35;;;;;;;7.13;100.00;100769.75;5044324;28;20028;-57
2023/12/12 00:05:54;;;;;;;14.05;4.97;;;;;;;7.10;100.00;100768.13;5042682;28;20035;-57
2023/12/12 00:08:19;;;;;;;20.70;5.18;;;;;;;7.06;100.00;100769.28;5043493;28;20044;-57
2023/12/12 00:10:44;;;;;;;12.27;4.43;;;;;;;7.04;100.00;100768.50;5046214;28;20025;-57
2023/12/12 00:13:10;;;;;;;13.55;4.93;;;;;;;7.01;100.00;100766.06;5043438;28;20064;-58
2023/12/12 00:15:36;;;;;;;15.50;5.15;;;;;;;6.99;100.00;100768.78;5042332;28;20095;-58
2023/12/12 00:18:01;;;;;;;15.50;4.95;;;;;;;6.97;100.00;100769.84;5044113;28;20485;-57
2023/12/12 00:20:26;;;;;;;16.17;5.28;;;;;;;6.94;100.00;100770.88;5041801;28;20394;-57
2023/12/12 00:22:52;;;;;;;18.70;5.88;;;;;;;6.93;100.00;100765.69;5045914;28;20119;-57
2023/12/12 00:25:17;;;;;;;17.20;5.60;;;;;;;6.91;100.00;100767.59;5044548;28;20025;-57
2023/12/12 00:27:42;;;;;;;17.85;5.72;;;;;;;6.88;100.00;100768.63;5044390;28;20022;-57
2023/12/12 00:30:08;;;;;;;21.65;5.20;;;;;;;6.85;100.00;100769.66;5049007;28;20407;-57
2023/12/12 00:32:34;;;;;;;18.27;5.40;;;;;;;6.82;100.00;100764.56;5047379;28;20476;-56
2023/12/12 00:34:59;;;;;;;15.75;4.85;;;;;;;6.79;100.00;100772.69;5040256;28;20021;-58
2023/12/12 00:37:24;;;;;;;24.25;6.05;;;;;;;6.77;100.00;100768.44;5041950;28;20449;-57
2023/12/12 00:39:50;;;;;;;15.30;5.55;;;;;;;6.75;100.00;100775.63;5038492;28;20382;-58
2023/12/12 00:42:15;;;;;;;17.85;5.65;;;;;;;6.73;100.00;100769.56;5045968;28;20113;-58
2023/12/12 00:44:40;;;;;;;24.52;5.97;;;;;;;6.69;100.00;100763.63;5046801;28;20398;-55
2023/12/12 00:47:05;;;;;;;23.55;5.70;;;;;;;6.67;100.00;100758.44;5042644;28;20037;-58
2023/12/12 00:49:31;;;;;;;22.83;5.97;;;;;;;6.66;100.00;100761.19;5047941;28;20024;-58
2023/12/12 00:51:56;;;;;;;16.63;5.55;;;;;;;6.63;100.00;100764.03;5048804;28;20105;-57
2023/12/12 00:54:21;;;;;;;18.95;5.68;;;;;;;6.61;100.00;100761.47;5045898;28;20021;-57
2023/12/12 00:56:47;;;;;;;20.30;6.05;;;;;;;6.59;100.00;100762.50;5042983;28;20017;-58
2023/12/12 00:59:13;;;;;;;18.35;5.80;;;;;;;6.58;100.00;100758.19;5043461;28;20025;-57
2023/12/12 01:01:39;;;;;;;19.30;5.50;;;;;;;6.57;100.00;100757.31;5044588;28;20036;-57
2023/12/12 01:04:04;;;;;;;23.60;6.22;;;;;;;6.54;100.00;100746.13;5043378;28;20021;-56
2023/12/12 01:06:29;;;;;;;22.77;5.53;;;;;;;6.56;100.00;100752.13;5039790;28;20051;-58
2023/12/12 01:08:55;;;;;;;23.17;5.88;;;;;;;6.54;100.00;100743.47;5039523;28;20029;-58
2023/12/12 01:11:20;;;;;;;14.57;5.68;;;;;;;6.53;100.00;100753.19;5040680;28;20032;-58
2023/12/12 01:13:46;;;;;;;18.17;5.60;;;;;;;6.50;100.00;100748.09;5043966;28;20029;-56
2023/12/12 01:16:12;;;;;;;18.20;5.80;;;;;;;6.47;100.00;100748.28;5048160;28;20470;-58
2023/12/12 01:18:37;;;;;;;20.95;6.18;;;;;;;6.43;100.00;100744.97;5043756;28;20083;-57
2023/12/12 01:21:03;;;;;;;24.92;5.40;;;;;;;6.41;100.00;100741.59;5049568;28;20017;-58
2023/12/12 01:23:48;;;;;;;23.50;5.85;;;;;;;6.43;100.00;100733.59;5048170;28;20474;-59
2023/12/12 01:26:13;;;;;;;22.27;5.60;;;;;;;6.38;100.00;100740.91;5046777;28;20020;-56
2023/12/12 01:28:38;;;;;;;18.85;5.65;;;;;;;6.36;100.00;100733.13;5049962;28;20474;-57
2023/12/12 01:31:04;;;;;;;22.05;5.72;;;;;;;6.35;100.00;100731.41;5043356;28;20036;-57
2023/12/12 01:33:29;;;;;;;19.02;5.57;;;;;;;6.33;100.00;100743.84;5047732;28;20483;-57
2023/12/12 01:35:54;;;;;;;23.48;5.80;;;;;;;6.30;100.00;100731.69;5041840;28;20049;-59
2023/12/12 01:38:19;;;;;;;18.70;5.13;;;;;;;6.29;100.00;100732.63;5046523;28;20112;-57
2023/12/12 01:40:47;;;;;;;16.38;5.22;;;;;;;6.26;100.00;100734.59;5045950;28;21085;-57
2023/12/12 01:43:12;;;;;;;22.83;5.90;;;;;;;6.22;100.00;100733.09;5048304;28;20925;-56
2023/12/12 01:45:38;;;;;;;23.58;5.53;;;;;;;6.20;100.00;100730.53;5047656;28;20075;-57
2023/12/12 01:48:03;;;;;;;27.45;6.60;;;;;;;6.16;100.00;100736.09;5047167;28;21216;-57
2023/12/12 01:50:29;;;;;;;21.48;5.32;;;;;;;6.13;100.00;100725.72;5046614;28;20036;-58
2023/12/12 01:52:55;;;;;;;16.55;5.57;;;;;;;6.10;100.00;100732.88;5049717;28;20021;-58
2023/12/12 01:55:20;;;;;;;19.17;5.50;;;;;;;6.08;100.00;100732.13;5044691;28;20029;-56
2023/12/12 01:57:46;;;;;;;24.75;6.10;;;;;;;6.04;100.00;100730.59;5044656;28;20064;-57
2023/12/12 02:00:11;;;;;;;18.80;5.60;;;;;;;6.03;100.00;100733.31;5047164;28;20052;-57
2023/12/12 02:02:37;;;;;;;33.33;7.38;;;;;;;5.99;100.00;100731.81;5046530;28;20025;-57
2023/12/12 02:05:02;;;;;;;28.48;5.95;;;;;;;5.99;100.00;100731.81;5047222;28;20040;-57
2023/12/12 02:07:29;;;;;;;21.00;5.70;;;;;;;5.95;100.00;100741.69;5043040;28;20024;-59
2023/12/12 02:09:54;;;;;;;23.20;6.03;;;;;;;5.93;100.00;100733.84;5045705;28;20028;-59
2023/12/12 02:12:21;;;;;;;31.60;6.40;;;;;;;5.91;100.00;100735.75;5046768;28;20027;-58
2023/12/12 02:14:46;;;;;;;24.13;6.82;;;;;;;5.88;100.00;100728.00;5044497;28;20041;-57
2023/12/12 02:17:11;;;;;;;21.20;5.75;;;;;;;5.86;100.00;100726.38;5043970;28;20082;-58
2023/12/12 02:19:36;;;;;;;23.02;6.05;;;;;;;5.83;100.00;100723.91;5043964;28;20025;-59
2023/12/12 02:22:02;;;;;;;29.95;6.72;;;;;;;5.82;100.00;100722.25;5049980;28;20060;-58
2023/12/12 02:24:27;;;;;;;22.90;5.97;;;;;;;5.79;100.00;100720.63;5047332;28;20067;-58
2023/12/12 02:26:52;;;;;;;20.85;5.45;;;;;;;5.78;100.00;100716.31;5051210;28;20017;-58
2023/12/12 02:29:18;;;;;;;26.38;5.85;;;;;;;5.77;100.00;100713.75;5050252;28;20027;-59
2023/12/12 02:31:43;;;;;;;25.17;5.57;;;;;;;5.73;100.00;100706.03;5048694;28;20064;-58
2023/12/12 02:34:08;;;;;;;21.98;6.13;;;;;;;5.71;100.00;100707.91;5049789;28;20043;-59
2023/12/12 02:36:34;;;;;;;26.35;6.22;;;;;;;5.69;100.00;100714.19;5049836;28;20021;-58
2023/12/12 02:38:59;;;;;;;23.38;6.40;;;;;;;5.66;100.00;100702.06;5044161;28;20021;-57
2023/12/12 02:41:24;;;;;;;17.15;5.68;;;;;;;5.64;100.00;100705.72;5051757;28;20438;-57
2023/12/12 02:43:49;;;;;;;22.25;6.13;;;;;;;5.63;100.00;100696.09;5047544;28;20028;-59
2023/12/12 02:46:15;;;;;;;28.42;6.55;;;;;;;5.62;100.00;100705.81;5050405;28;20033;-58
2023/12/12 02:48:40;;;;;;;24.58;6.38;;;;;;;5.61;100.00;100705.88;5047515;28;20190;-58
2023/12/12 02:51:05;;;;;;;30.17;6.72;;;;;;;5.57;100.00;100707.84;5050578;28;20162;-58
2023/12/12 02:53:31;;;;;;;23.05;6.95;;;;;;;5.56;100.00;100703.50;5046864;28;20378;-58
2023/12/12 02:55:56;;;;;;;26.67;6.95;;;;;;;5.54;100.00;100708.03;5046770;28;20021;-58
2023/12/12 02:58:21;;;;;;;19.70;5.88;;;;;;;5.52;100.00;100707.28;5048170;28;20174;-57
2023/12/12 03:00:46;;;;;;;24.52;5.88;;;;;;;5.49;100.00;100710.94;5048070;28;20029;-57
2023/12/12 03:03:12;;;;;;;21.75;5.85;;;;;;;5.46;100.00;100700.59;5044432;28;20372;-58
2023/12/12 03:05:37;;;;;;;22.50;6.18;;;;;;;5.44;100.00;100702.44;5046441;28;20040;-57
2023/12/12 03:08:02;;;;;;;25.77;5.78;;;;;;;5.42;100.00;100700.84;5040426;28;20020;-57
2023/12/12 03:10:28;;;;;;;28.15;6.60;;;;;;;5.38;100.00;100693.13;5043940;28;20382;-57
2023/12/12 03:12:53;;;;;;;27.15;6.22;;;;;;;5.38;100.00;100697.53;5048888;28;20410;-58
2023/12/12 03:15:18;;;;;;;28.77;5.43;;;;;;;5.36;100.00;100687.09;5048368;28;20032;-58
2023/12/12 03:17:43;;;;;;;26.30;6.53;;;;;;;5.36;100.00;100688.84;5047070;28;20466;-57
2023/12/12 03:20:09;;;;;;;20.75;6.25;;;;;;;5.34;100.00;100685.47;5050029;28;20021;-58
2023/12/12 03:22:34;;;;;;;24.13;5.85;;;;;;;5.31;100.00;100681.25;5049773;28;20493;-58
2023/12/12 03:25:00;;;;;;;31.17;6.28;;;;;;;5.31;100.00;100686.50;5043484;28;20036;-57
2023/12/12 03:27:26;;;;;;;26.00;6.03;;;;;;;5.28;100.00;100670.88;5051546;28;20021;-58
2023/12/12 03:29:51;;;;;;;27.00;5.70;;;;;;;5.27;100.00;100682.34;5047325;28;20024;-58
2023/12/12 03:32:16;;;;;;;30.08;6.63;;;;;;;5.26;100.00;100680.66;5045879;28;20029;-57
2023/12/12 03:34:42;;;;;;;23.83;5.90;;;;;;;5.26;100.00;100688.56;5047626;28;20123;-56
2023/12/12 03:37:07;;;;;;;25.15;5.70;;;;;;;5.26;100.00;100687.69;5045936;28;20039;-58
2023/12/12 03:39:32;;;;;;;31.15;6.95;;;;;;;5.25;100.00;100676.31;5043593;28;20022;-57
2023/12/12 03:41:57;;;;;;;24.33;5.80;;;;;;;5.25;100.00;100680.75;5043913;28;20374;-57
2023/12/12 03:44:23;;;;;;;26.98;6.60;;;;;;;5.23;100.00;100667.66;5046788;28;20037;-56
2023/12/12 03:46:48;;;;;;;30.85;5.55;;;;;;;5.24;100.00;100658.81;5041362;28;20301;-56
2023/12/12 03:49:13;;;;;;;24.77;5.47;;;;;;;5.26;100.00;100656.97;5046972;28;20052;-57
2023/12/12 03:51:38;;;;;;;26.52;5.95;;;;;;;5.28;100.00;100649.81;5046380;28;20016;-57
2023/12/12 03:54:04;;;;;;;27.92;5.78;;;;;;;5.30;100.00;100650.56;5048550;28;20425;-56
2023/12/12 03:56:29;;;;;;;27.08;6.47;;;;;;;5.35;100.00;100645.03;5041734;28;20033;-58
2023/12/12 03:58:54;;;;;;;29.17;6.60;;;;;;;5.37;100.00;100645.78;5045285;28;20028;-56
2023/12/12 04:01:20;;;;;;;29.50;6.30;;;;;;;5.41;100.00;100635.94;5046439;28;20027;-56
2023/12/12 04:03:45;;;;;;;32.17;6.47;;;;;;;5.45;100.00;100648.84;5047066;28;20033;-56
2023/12/12 04:06:10;;;;;;;36.42;7.10;;;;;;;5.47;100.00;100631.16;5048253;28;20017;-56
2023/12/12 04:08:36;;;;;;;30.55;6.90;;;;;;;5.51;100.00;100631.81;5046493;28;20392;-58
2023/12/12 04:11:01;;;;;;;31.60;7.35;;;;;;;5.52;100.00;100625.63;5043548;28;20028;-58
2023/12/12 04:13:26;;;;;;;27.70;7.32;;;;;;;5.55;100.00;100621.00;5050463;28;20173;-54
2023/12/12 04:15:52;;;;;;;29.70;6.70;;;;;;;5.58;100.00;100622.63;5049094;28;20021;-57
2023/12/12 04:18:17;;;;;;;29.10;6.82;;;;;;;5.59;100.00;100623.47;5050326;28;20120;-57
2023/12/12 04:20:43;;;;;;;31.40;7.70;;;;;;;5.61;100.00;100616.31;5041430;28;20023;-57
2023/12/12 04:23:08;;;;;;;25.73;7.32;;;;;;;5.64;100.00;100621.41;5040365;28;20479;-57
2023/12/12 04:25:33;;;;;;;33.88;7.32;;;;;;;5.66;100.00;100617.75;5044982;28;20029;-55
2023/12/12 04:27:59;;;;;;;32.83;7.20;;;;;;;5.69;100.00;100616.69;5045193;28;20021;-57
2023/12/12 04:30:24;;;;;;;29.80;7.10;;;;;;;5.70;100.00;100616.63;5044621;28;20060;-57
2023/12/12 04:32:49;;;;;;;33.35;7.60;;;;;;;5.72;100.00;100613.88;5044951;28;20025;-55
2023/12/12 04:35:16;;;;;;;29.67;7.53;;;;;;;5.74;100.00;100617.28;5045878;28;20025;-56
2023/12/12 04:37:41;;;;;;;28.42;7.03;;;;;;;5.74;100.00;100614.63;5049669;28;20029;-57
2023/12/12 04:40:07;;;;;;;31.40;8.02;;;;;;;5.80;100.00;100618.72;5044659;28;20028;-57
2023/12/12 04:42:32;;;;;;;30.38;7.78;;;;;;;5.79;100.00;100607.31;5040415;28;20458;-56
2023/12/12 04:44:57;;;;;;;31.73;7.30;;;;;;;5.81;100.00;100613.34;5039107;28;20020;-57
2023/12/12 04:47:23;;;;;;;29.35;7.25;;;;;;;5.83;100.00;100602.69;5041235;28;20053;-56
2023/12/12 04:49:48;;;;;;;36.22;7.97;;;;;;;5.84;100.00;100601.75;5044942;28;20029;-56
2023/12/12 04:52:15;;;;;;;33.97;8.88;;;;;;;5.84;100.00;100602.59;5037178;28;20493;-57
2023/12/12 04:54:41;;;;;;;30.27;7.72;;;;;;;5.84;100.00;100599.97;5039304;28;20025;-57
2023/12/12 04:57:06;;;;;;;35.45;7.43;;;;;;;5.87;100.00;100589.22;5044767;28;20028;-56
2023/12/12 04:59:31;;;;;;;29.15;7.40;;;;;;;5.89;100.00;100597.88;5048507;28;20432;-55
2023/12/12 05:01:56;;;;;;;33.88;8.00;;;;;;;5.89;100.00;100595.25;5051032;28;20079;-56
2023/12/12 05:04:22;;;;;;;32.50;8.02;;;;;;;5.91;100.00;100589.88;5043407;28;20035;-57
2023/12/12 05:06:47;;;;;;;35.38;8.20;;;;;;;5.93;100.00;100585.41;5043082;28;20122;-57
2023/12/12 05:09:12;;;;;;;42.30;8.13;;;;;;;5.94;100.00;100579.16;5047040;28;20087;-57
2023/12/12 05:11:38;;;;;;;36.70;7.80;;;;;;;5.97;100.00;100588.72;5045862;28;20022;-58
2023/12/12 05:14:05;;;;;;;29.13;7.53;;;;;;;5.99;100.00;100586.81;5050746;28;20024;-56
2023/12/12 05:16:31;;;;;;;30.75;7.60;;;;;;;5.99;100.00;100585.03;5051380;28;20025;-56
2023/12/12 05:18:56;;;;;;;34.78;7.85;;;;;;;6.00;100.00;100581.47;5045556;28;20447;-58
2023/12/12 05:21:22;;;;;;;34.45;7.57;;;;;;;6.03;100.00;100577.78;5041321;28;20032;-58
2023/12/12 05:23:50;;;;;;;29.25;7.38;;;;;;;6.05;100.00;100571.47;5041528;28;20038;-58
2023/12/12 05:26:18;;;;;;;31.77;7.30;;;;;;;6.07;100.00;100569.59;5042533;28;20728;-56
2023/12/12 05:28:43;;;;;;;32.22;7.70;;;;;;;6.07;100.00;100566.94;5047184;28;20031;-57
2023/12/12 05:31:09;;;;;;;27.80;7.50;;;;;;;6.10;100.00;100566.75;5046842;28;20018;-56
2023/12/12 05:33:34;;;;;;;31.63;8.32;;;;;;;6.12;100.00;100561.38;5046998;28;20033;-58
2023/12/12 05:35:59;;;;;;;31.15;7.50;;;;;;;6.16;100.00;100564.69;5047221;28;20029;-58
2023/12/12 05:38:24;;;;;;;29.40;7.00;;;;;;;6.15;100.00;100563.84;5045776;28;20025;-58
2023/12/12 05:40:50;;;;;;;38.70;8.13;;;;;;;6.18;100.00;100561.00;5047142;28;20068;-58
2023/12/12 05:43:15;;;;;;;28.88;7.07;;;;;;;6.18;100.00;100560.16;5046408;28;20036;-58
2023/12/12 05:45:40;;;;;;;32.17;7.78;;;;;;;6.20;100.00;100560.94;5046969;28;20049;-57
2023/12/12 05:48:06;;;;;;;32.00;7.15;;;;;;;6.24;100.00;100562.41;5039828;28;20037;-57
2023/12/12 05:50:31;;;;;;;28.13;7.55;;;;;;;6.27;100.00;100564.84;5045571;28;20420;-56
2023/12/12 05:52:56;;;;;;;36.80;7.75;;;;;;;6.27;100.00;100565.69;5044211;28;20029;-58
2023/12/12 05:55:22;;;;;;;35.45;8.00;;;;;;;6.30;100.00;100568.16;5044809;28;20024;-58
2023/12/12 05:57:50;;;;;;;32.15;8.02;;;;;;;6.34;100.00;100573.22;5047107;28;20054;-58
2023/12/12 06:00:16;;;;;;;27.95;6.80;;;;;;;6.36;100.00;100566.94;5044456;28;20063;-57
2023/12/12 06:02:41;;;;;;;31.23;7.07;;;;;;;6.38;100.00;100559.75;5045516;28;20477;-57
2023/12/12 06:05:07;;;;;;;31.77;7.68;;;;;;;6.38;100.00;100567.66;5045437;28;20032;-57
2023/12/12 06:07:36;;;;;;;29.58;7.00;;;;;;;6.39;100.00;100561.44;5047495;28;20030;-57
2023/12/12 06:10:04;;;;;;;34.85;8.13;;;;;;;6.42;100.00;100558.59;5046629;28;20047;-58
2023/12/12 06:12:30;;;;;;;27.80;7.18;;;;;;;6.43;100.00;100559.47;5046382;28;20037;-57
2023/12/12 06:14:55;;;;;;;30.05;7.15;;;;;;;6.46;100.00;100553.97;5045204;28;20021;-57
2023/12/12 06:17:22;;;;;;;32.70;7.50;;;;;;;6.45;100.00;100557.56;5050638;28;20591;-57
2023/12/12 06:19:47;;;;;;;35.38;8.25;;;;;;;6.45;100.00;100550.50;5054383;28;20036;-57
2023/12/12 06:22:13;;;;;;;26.42;6.95;;;;;;;6.45;100.00;100547.84;5050607;28;20033;-56
2023/12/12 06:24:38;;;;;;;31.85;7.32;;;;;;;6.46;100.00;100546.94;5052830;28;20021;-58
2023/12/12 06:27:04;;;;;;;35.47;7.55;;;;;;;6.47;100.00;100539.84;5052569;28;20024;-58
2023/12/12 06:29:29;;;;;;;32.05;7.85;;;;;;;6.48;100.00;100536.28;5053982;28;20522;-57
2023/12/12 06:31:54;;;;;;;30.40;7.13;;;;;;;6.47;100.00;100529.28;5052647;28;20369;-58
2023/12/12 06:34:20;;;;;;;30.38;7.80;;;;;;;6.47;100.00;100521.38;5053950;28;20029;-58
2023/12/12 06:36:46;;;;;;;30.67;7.13;;;;;;;6.46;100.00;100528.47;5051757;28;20537;-58
2023/12/12 06:39:13;;;;;;;33.22;7.05;;;;;;;6.51;100.00;100522.03;5053592;28;20107;-58
2023/12/12 06:41:38;;;;;;;33.25;7.30;;;;;;;6.48;100.00;100509.91;5053422;28;20520;-58
2023/12/12 06:44:04;;;;;;;32.53;8.13;;;;;;;6.47;100.00;100510.81;5050647;28;20032;-58
2023/12/12 06:46:29;;;;;;;32.63;7.60;;;;;;;6.50;100.00;100523.00;5053404;28;20116;-58
2023/12/12 06:48:54;;;;;;;32.80;7.22;;;;;;;6.47;100.00;100509.03;5052272;28;20147;-58
2023/12/12 06:51:20;;;;;;;34.45;6.63;;;;;;;6.48;100.00;100504.63;5047926;28;20485;-58
2023/12/12 06:53:45;;;;;;;26.48;6.22;;;;;;;6.47;100.00;100495.00;5047256;28;20036;-58
2023/12/12 06:56:10;;;;;;;33.92;7.68;;;;;;;6.46;100.00;100488.88;5047361;28;20040;-57
2023/12/12 06:58:36;;;;;;;30.00;6.72;;;;;;;6.46;100.00;100488.88;5052766;28;20036;-58
2023/12/12 07:01:01;;;;;;;32.72;7.45;;;;;;;6.45;100.00;100487.19;5051136;28;20116;-57
2023/12/12 07:03:26;;;;;;;28.95;6.70;;;;;;;6.45;100.00;100487.19;5050693;28;20037;-59
2023/12/12 07:05:52;;;;;;;30.58;6.82;;;;;;;6.46;100.00;100490.66;5047628;28;20033;-59
2023/12/12 07:08:18;;;;;;;29.80;6.50;;;;;;;6.45;100.00;100481.06;5047228;28;20512;-58
2023/12/12 07:10:45;;;;;;;22.48;6.43;;;;;;;6.47;100.00;100481.81;5050366;28;20040;-58
2023/12/12 07:13:10;;;;;;;34.90;7.35;;;;;;;6.48;100.00;100486.16;5044047;28;20383;-59
2023/12/12 07:15:36;;;;;;;25.30;6.50;;;;;;;6.48;100.00;100486.16;5046963;28;20029;-58
2023/12/12 07:18:01;;;;;;;31.90;7.57;;;;;;;6.50;100.00;100488.69;5040427;28;20021;-60
2023/12/12 07:20:26;;;;;;;31.15;7.47;;;;;;;6.52;100.00;100494.72;5047428;28;20415;-58
2023/12/12 07:22:52;;;;;;;28.08;6.32;;;;;;;6.52;100.00;100492.06;5048363;28;20025;-57
2023/12/12 07:25:17;;;;;;;26.80;6.82;;;;;;;6.53;100.00;100486.69;5047908;28;20029;-58
2023/12/12 07:27:42;;;;;;;35.72;7.30;;;;;;;6.56;100.00;100490.91;5050366;28;20107;-62
2023/12/12 07:30:09;;;;;;;30.48;7.20;;;;;;;6.59;100.00;100488.06;5047700;28;20028;-60
2023/12/12 07:32:34;;;;;;;28.75;6.45;;;;;;;6.59;100.00;100481.00;5047924;28;20025;-60
2023/12/12 07:35:00;;;;;;;27.40;6.95;;;;;;;6.61;100.00;100483.53;5052230;28;20024;-59
2023/12/12 07:37:25;;;;;;;30.00;6.72;;;;;;;6.60;100.00;100489.78;5050854;28;20066;-60
2023/12/12 07:39:50;;;;;;;28.10;6.75;;;;;;;6.60;100.00;100476.59;5048438;28;20025;-58
2023/12/12 07:42:16;;;;;;;28.75;7.45;;;;;;;6.60;100.00;100468.66;5046703;28;20034;-59
2023/12/12 07:44:41;;;;;;;27.05;6.20;;;;;;;6.59;100.00;100466.97;5043597;28;20074;-59
2023/12/12 07:47:07;;;;;;;39.97;7.63;;;;;;;6.61;100.00;100462.41;5049548;28;20028;-59
2023/12/12 07:49:32;;;;;;;24.88;6.60;;;;;;;6.59;100.00;100459.03;5051191;28;20017;-59
2023/12/12 07:51:58;;;;;;;24.90;6.63;;;;;;;6.59;100.00;100459.03;5050952;28;20424;-59
2023/12/12 07:54:23;;;;;;;32.42;7.05;;;;;;;6.59;100.00;100453.75;5049058;28;20060;-58
2023/12/12 07:56:48;;;;;;;30.90;6.75;;;;;;;6.57;100.00;100451.22;5048848;28;20361;-60
2023/12/12 07:59:13;;;;;;;27.15;6.30;;;;;;;6.57;100.00;100451.22;5048787;28;20381;-58
2023/12/12 08:01:39;;;;;;;28.90;7.10;;;;;;;6.57;100.00;100445.94;5049581;28;20044;-59
2023/12/12 08:04:08;;;;;;;32.00;7.88;;;;;;;6.54;100.00;100440.88;5051048;28;20093;-59
2023/12/12 08:06:33;;;;;;;32.10;7.13;;;;;;;6.57;100.00;100439.84;5046055;28;20031;-59
2023/12/12 08:08:59;;;;;;;29.25;7.40;;;;;;;6.57;100.00;100445.13;5044822;28;20029;-60
2023/12/12 08:11:27;;;;;;;25.13;7.05;;;;;;;6.57;100.00;100438.03;5050516;28;20033;-59
2023/12/12 08:13:53;;;;;;;29.73;6.97;;;;;;;6.58;100.00;100426.53;5045612;28;20025;-60
2023/12/12 08:16:18;;;;;;;31.58;7.32;;;;;;;6.61;100.00;100430.75;5051034;28;20496;-59
2023/12/12 08:18:43;;;;;;;31.35;7.25;;;;;;;6.63;100.00;100418.31;5051685;28;20394;-58
2023/12/12 08:21:09;;;;;;;26.77;6.97;;;;;;;6.65;100.00;100417.25;5047958;28;20025;-58
2023/12/12 08:23:37;;;;;;;33.03;6.82;;;;;;;6.69;100.00;100419.69;5051638;28;20120;-60
2023/12/12 08:26:03;;;;;;;28.27;6.97;;;;;;;6.73;100.00;100414.13;5048756;28;20396;-59
2023/12/12 08:28:28;;;;;;;29.17;8.07;;;;;;;6.81;100.00;100410.94;5048547;28;20112;-59
2023/12/12 08:30:53;;;;;;;31.55;7.25;;;;;;;6.84;100.00;100413.38;5043977;28;20478;-59
2023/12/12 08:33:20;;;;;;;30.02;7.35;;;;;;;6.88;100.00;100414.88;5041509;28;20025;-59
2023/12/12 08:35:45;;;;;;;27.00;6.57;;;;;;;6.90;100.00;100412.13;5044665;28;20033;-58
2023/12/12 08:38:11;;;;;;;27.60;6.60;;;;;;;6.92;100.00;100423.44;5047278;28;20028;-58
2023/12/12 08:40:37;;;;;;;26.35;6.05;;;;;;;6.96;100.00;100419.59;5052691;28;20504;-59
2023/12/12 08:43:02;;;;;;;31.33;6.07;;;;;;;6.97;100.00;100414.22;5050801;28;20112;-59
2023/12/12 08:45:29;;;;;;;35.75;7.18;;;;;;;7.00;100.00;100410.53;5051283;28;20096;-59
2023/12/12 08:47:54;;;;;;;29.92;6.53;;;;;;;7.02;100.00;100408.63;5051710;28;20127;-59
2023/12/12 08:50:19;;;;;;;28.55;6.20;;;;;;;7.04;100.00;100406.72;5051821;28;20451;-60
2023/12/12 08:52:45;;;;;;;28.45;6.97;;;;;;;7.06;100.00;100407.50;5049636;28;20035;-59
2023/12/12 08:55:11;;;;;;;31.42;7.07;;;;;;;7.10;100.00;100395.75;5051960;28;20359;-59
2023/12/12 08:57:36;;;;;;;33.42;7.50;;;;;;;7.15;100.00;100398.09;5053267;28;20025;-60
2023/12/12 09:00:03;;;;;;;28.13;6.35;;;;;;;7.22;100.00;100399.34;5051894;28;20612;-59
2023/12/12 09:02:29;;;;;;;28.80;6.68;;;;;;;7.29;100.00;100390.03;5053787;28;20036;-60
2023/12/12 09:04:54;;;;;;;28.80;7.38;;;;;;;7.35;100.00;100389.59;5048672;28;20036;-60
2023/12/12 09:07:20;;;;;;;29.52;6.35;;;;;;;7.44;100.00;100384.63;5054043;28;20025;-60
2023/12/12 09:09:45;;;;;;;25.90;6.43;;;;;;;7.50;100.00;100374.47;5050542;28;20041;-60
2023/12/12 09:12:10;;;;;;;24.48;6.47;;;;;;;7.60;100.00;100364.91;5051102;28;20029;-60
2023/12/12 09:14:36;;;;;;;25.90;6.95;;;;;;;7.68;100.00;100363.53;5052808;28;20059;-60
2023/12/12 09:17:01;;;;;;;26.17;5.60;;;;;;;7.76;100.00;100355.88;5046207;28;20560;-60
2023/12/12 09:19:26;;;;;;;28.05;6.70;;;;;;;7.86;100.00;100350.75;5049499;28;20029;-60
2023/12/12 09:21:54;;;;;;;25.17;6.38;;;;;;;7.93;100.00;100350.19;5047164;28;20035;-60
2023/12/12 09:24:19;;;;;;;27.65;6.90;;;;;;;8.00;100.00;100345.31;5047532;28;20025;-60
2023/12/12 09:26:45;;;;;;;23.10;5.60;;;;;;;8.10;100.00;100348.13;5053312;28;20036;-60
2023/12/12 09:29:10;;;;;;;18.45;5.95;;;;;;;8.20;100.00;100345.63;5050646;28;20021;-57
2023/12/12 09:31:36;;;;;;;21.65;6.30;;;;;;;8.29;100.00;100345.78;5046605;28;20475;-58
2023/12/12 09:34:02;;;;;;;29.80;6.32;;;;;;;8.39;100.00;100337.16;5048154;28;20048;-58
2023/12/12 09:36:27;;;;;;;25.55;5.88;;;;;;;8.49;100.00;100340.81;5048033;28;20439;-57
2023/12/12 09:38:52;;;;;;;19.65;5.30;;;;;;;8.59;100.00;100336.50;5050109;28;20043;-58
2023/12/12 09:41:22;;;;;;;20.00;6.15;;;;;;;8.72;100.00;100338.22;5054618;28;20075;-57
2023/12/12 09:43:49;;;;;;;21.95;5.68;;;;;;;8.84;100.00;100337.25;5054541;28;20601;-58
2023/12/12 09:46:16;;;;;;;19.63;5.45;;;;;;;8.95;100.00;100328.50;5050878;28;20079;-58
2023/12/12 09:48:45;;;;;;;19.42;5.07;;;;;;;9.00;100.00;100329.81;5053702;28;20041;-57
2023/12/12 09:51:12;;;;;;;20.45;4.85;;;;;;;9.02;100.00;100325.22;5052007;28;20108;-57
2023/12/12 09:53:46;;;;;;;17.50;4.35;;;;;;;9.02;100.00;100324.41;5049906;28;20057;-58
2023/12/12 09:56:15;;;;;;;17.35;4.63;;;;;;;9.00;100.00;100321.03;5054197;28;20032;-57
2023/12/12 09:58:40;;;;;;;15.23;4.55;;;;;;;8.99;100.00;100314.91;5050100;28;20039;-58
2023/12/12 10:01:07;;;;;;;22.35;4.57;;;;;;;8.99;100.00;100314.03;5052168;28;20021;-59
2023/12/12 10:03:32;;;;;;;19.75;4.80;;;;;;;9.01;100.00;100302.38;5054211;28;20086;-60
2023/12/12 10:06:06;;;;;;;14.48;4.13;;;;;;;9.06;100.00;100296.72;5052043;28;20025;-59
2023/12/12 10:08:31;;;;;;;18.33;4.43;;;;;;;9.14;100.00;100285.50;5051742;28;20515;-60
2023/12/12 10:10:56;;;;;;;16.75;4.35;;;;;;;9.22;100.00;100283.06;5051867;28;20101;-59
2023/12/12 10:13:22;;;;;;;15.10;4.07;;;;;;;9.30;100.00;100274.53;5050207;28;20029;-61
2023/12/12 10:15:48;;;;;;;18.23;4.43;;;;;;;9.38;100.00;100277.41;5052819;28;20025;-59
2023/12/12 10:18:14;;;;;;;15.48;4.68;;;;;;;9.45;100.00;100268.81;5054288;28;20408;-61
2023/12/12 10:20:39;;;;;;;18.35;4.20;;;;;;;9.55;100.00;100260.94;5054070;28;20033;-59
2023/12/12 10:23:04;;;;;;;16.05;3.80;;;;;;;9.62;100.00;100258.66;5053427;28;20043;-60
2023/12/12 10:25:34;;;;;;;17.17;4.65;;;;;;;9.72;100.00;100258.72;5053676;28;20040;-60
2023/12/12 10:28:00;;;;;;;13.60;3.85;;;;;;;9.80;100.00;100250.97;5052869;28;20150;-60
2023/12/12 10:30:26;;;;;;;12.25;3.90;;;;;;;9.91;100.00;100258.03;5050812;28;20131;-59
2023/12/12 10:32:53;;;;;;;16.48;4.28;;;;;;;9.98;100.00;100252.09;5053169;28;20032;-60
2023/12/12 10:35:23;;;;;;;15.55;3.75;;;;;;;10.08;100.00;100261.97;5045651;28;20502;-60
2023/12/12 10:37:52;;;;;;;12.70;3.30;;;;;;;10.17;100.00;100253.19;5046136;28;20025;-60
2023/12/12 10:40:21;;;;;;;12.50;3.45;;;;;;;10.26;100.00;100254.22;5049618;28;20474;-57
2023/12/12 10:42:50;;;;;;;12.90;3.72;;;;;;;10.30;100.00;100247.72;5049797;28;20025;-57
2023/12/12 10:45:16;;;;;;;11.10;3.37;;;;;;;10.32;100.00;100248.44;5052238;28;20043;-57
2023/12/12 10:47:46;;;;;;;12.38;3.28;;;;;;;10.37;100.00;100246.22;5048727;28;20426;-58
2023/12/12 10:50:15;;;;;;;7.72;2.70;;;;;;;10.37;100.00;100243.59;5053091;28;20021;-60
2023/12/12 10:52:42;;;;;;;;;;;;;;;10.42;100.00;100229.91;5048261;28;20032;-60
2023/12/12 10:55:10;;;;;;;8.63;2.50;;;;;;;10.31;100.00;100228.16;5053059;28;19920;-60
2023/12/12 10:57:37;;;;;;;9.75;3.08;;;;;;;10.28;100.00;100236.38;5052028;28;20029;-60
2023/12/12 11:00:11;;;;;;;9.82;2.97;;;;;;;10.26;100.00;100222.38;5050953;28;20026;-59
2023/12/12 11:02:40;;;;;;;7.32;2.55;;;;;;;10.23;100.00;100222.66;5050786;28;20028;-59
2023/12/12 11:05:07;;;;;;;;;;;;;;;10.25;100.00;100210.09;5046645;28;20178;-59
2023/12/12 11:07:33;;;;;;;11.07;3.00;;;;;;;10.13;100.00;100210.16;5047201;28;19935;-59
2023/12/12 11:09:58;;;;;;;9.55;3.15;;;;;;;10.11;100.00;100203.34;5042084;28;20111;-59